createdAt,value
2019-03-10T00:03:12.246Z,35.53
2019-03-10T00:08:15.765Z,34.58
2019-03-10T00:13:19.311Z,33.48
2019-03-10T00:18:23.431Z,33.83
2019-03-10T00:23:26.975Z,34.21
2019-03-10T00:28:30.534Z,34.33
2019-03-10T00:33:34.399Z,34.44
2019-03-10T00:38:46.974Z,34.06
2019-03-10T00:44:02.483Z,34.41
2019-03-10T00:49:20.756Z,35.50
2019-03-10T00:54:24.311Z,35.72
2019-03-10T00:59:27.901Z,36.48
2019-03-10T01:04:31.499Z,37.38
2019-03-10T01:09:35.010Z,37.85
2019-03-10T01:14:38.569Z,38.29
2019-03-10T01:19:42.107Z,38.22
2019-03-10T01:24:45.699Z,39.34
2019-03-10T01:29:49.249Z,39.70
2019-03-10T01:34:58.752Z,40.49
2019-03-10T01:40:02.296Z,39.37
2019-03-10T01:45:08.562Z,38.60
2019-03-10T01:50:13.910Z,36.40
2019-03-10T01:55:17.448Z,35.34
2019-03-10T02:00:21.018Z,33.98
2019-03-10T02:05:24.607Z,32.86
2019-03-10T02:10:28.149Z,32.23
2019-03-10T02:15:31.717Z,31.91
2019-03-10T02:20:35.279Z,31.96
2019-03-10T02:25:38.843Z,31.93
2019-03-10T02:30:42.393Z,32.76
2019-03-10T02:35:45.954Z,32.74
2019-03-10T02:40:49.484Z,32.49
2019-03-10T02:45:53.009Z,33.19
2019-03-10T02:50:56.540Z,33.89
2019-03-10T02:56:00.102Z,34.90
2019-03-10T03:01:03.644Z,36.25
2019-03-10T03:06:07.219Z,36.90
2019-03-10T03:11:10.766Z,37.18
2019-03-10T03:16:14.304Z,38.45
2019-03-10T03:21:17.864Z,38.40
2019-03-10T03:26:21.405Z,36.05
2019-03-10T03:31:24.943Z,34.81
2019-03-10T03:36:33.704Z,33.93
2019-03-10T03:41:37.218Z,32.83
2019-03-10T03:46:40.752Z,32.73
2019-03-10T03:51:44.308Z,32.57
2019-03-10T03:56:47.845Z,32.83
2019-03-10T04:02:04.783Z,32.79
2019-03-10T04:07:08.328Z,33.25
2019-03-10T04:12:11.892Z,33.29
2019-03-10T04:17:15.458Z,33.06
2019-03-10T04:22:18.974Z,33.92
2019-03-10T04:27:22.511Z,33.89
2019-03-10T04:32:26.081Z,34.60
2019-03-10T04:37:29.620Z,35.61
2019-03-10T04:42:33.164Z,36.53
2019-03-10T04:47:36.695Z,35.52
2019-03-10T04:52:40.266Z,35.11
2019-03-10T04:57:57.566Z,35.04
2019-03-10T05:03:01.137Z,34.86
2019-03-10T05:08:05.119Z,35.01
2019-03-10T05:13:08.698Z,35.14
2019-03-10T05:18:12.231Z,36.75
2019-03-10T05:23:29.797Z,36.21
2019-03-10T05:28:35.285Z,36.02
2019-03-10T05:33:38.855Z,35.50
2019-03-10T05:38:42.418Z,35.64
2019-03-10T05:43:45.990Z,35.54
2019-03-10T05:48:49.537Z,35.59
2019-03-10T05:53:53.088Z,35.03
2019-03-10T05:58:56.619Z,34.24
2019-03-10T06:04:00.177Z,33.22
2019-03-10T06:09:04.830Z,32.72
2019-03-10T06:14:08.375Z,31.70
2019-03-10T06:19:11.913Z,31.08
2019-03-10T06:24:15.476Z,30.35
2019-03-10T06:29:19.348Z,30.67
2019-03-10T06:34:22.908Z,30.79
2019-03-10T06:39:26.438Z,31.50
2019-03-10T06:44:29.997Z,31.76
2019-03-10T06:49:33.556Z,32.46
2019-03-10T06:54:37.099Z,32.29
2019-03-10T06:59:40.692Z,32.52
2019-03-10T07:04:44.216Z,33.01
2019-03-10T07:09:47.777Z,33.14
2019-03-10T07:14:51.346Z,33.62
2019-03-10T07:19:54.911Z,33.17
2019-03-10T07:24:58.431Z,32.82
2019-03-10T07:30:03.534Z,32.41
2019-03-10T07:35:11.452Z,32.46
2019-03-10T07:40:25.461Z,32.25
2019-03-10T07:45:39.285Z,32.11
2019-03-10T07:50:53.178Z,32.22
2019-03-10T07:55:58.266Z,31.72
2019-03-10T08:01:18.498Z,31.33
2019-03-10T08:06:35.881Z,30.80
2019-03-10T08:11:40.994Z,30.76
2019-03-10T08:16:46.131Z,30.65
2019-03-10T08:22:15.967Z,30.96
2019-03-10T08:27:24.152Z,31.02
2019-03-10T08:32:44.615Z,31.00
2019-03-10T08:37:55.768Z,31.09
2019-03-10T08:43:16.362Z,31.18
2019-03-10T08:48:21.466Z,31.14
2019-03-10T08:53:26.699Z,31.36
2019-03-10T08:58:37.966Z,31.66
2019-03-10T09:03:55.027Z,31.87
2019-03-10T09:09:16.366Z,31.76
2019-03-10T09:14:21.467Z,31.88
2019-03-10T09:19:32.379Z,32.17
2019-03-10T09:24:37.493Z,31.86
2019-03-10T09:29:42.833Z,32.05
2019-03-10T09:34:51.052Z,32.12
2019-03-10T09:40:08.055Z,32.56
2019-03-10T09:45:22.160Z,32.72
2019-03-10T09:50:33.335Z,32.15
2019-03-10T09:55:44.452Z,32.69
2019-03-10T10:00:52.334Z,33.27
2019-03-10T10:06:00.165Z,32.89
2019-03-10T10:11:05.289Z,31.85
2019-03-10T10:16:26.667Z,31.99
2019-03-10T10:21:37.476Z,31.99
2019-03-10T10:26:51.635Z,31.92
2019-03-10T10:32:05.250Z,31.72
2019-03-10T10:37:22.296Z,31.35
2019-03-10T10:42:30.078Z,31.26
2019-03-10T10:47:43.898Z,30.84
2019-03-10T10:52:49.016Z,31.83
2019-03-10T10:58:00.055Z,32.49
2019-03-10T11:03:21.248Z,32.87
2019-03-10T11:08:26.361Z,33.58
2019-03-10T11:13:31.547Z,34.07
2019-03-10T11:18:45.749Z,34.39
2019-03-10T11:23:50.891Z,34.88
2019-03-10T11:29:03.920Z,35.41
2019-03-10T11:34:17.581Z,35.93
2019-03-10T11:39:31.518Z,36.32
2019-03-10T11:44:39.345Z,36.41
2019-03-10T11:49:50.456Z,36.47
2019-03-10T11:54:58.619Z,37.11
2019-03-10T12:00:03.753Z,37.15
2019-03-10T12:05:17.456Z,37.60
2019-03-10T12:10:21.667Z,37.82
2019-03-10T12:15:25.344Z,37.16
2019-03-10T12:20:29.029Z,37.16
2019-03-10T12:25:32.571Z,36.05
2019-03-10T12:30:36.104Z,35.86
2019-03-10T12:35:39.690Z,35.36
2019-03-10T12:40:43.241Z,35.25
2019-03-10T12:45:46.783Z,35.13
2019-03-10T12:50:50.350Z,35.25
2019-03-10T12:55:53.944Z,35.41
2019-03-10T13:01:05.703Z,35.42
2019-03-10T13:06:02.805Z,36.10
2019-03-10T13:11:06.412Z,36.10
2019-03-10T13:16:12.265Z,37.07
2019-03-10T13:21:15.286Z,36.65
2019-03-10T13:26:18.830Z,36.84
2019-03-10T13:31:22.421Z,37.32
2019-03-10T13:36:25.941Z,38.07
2019-03-10T13:41:29.594Z,38.44
2019-03-10T13:46:33.120Z,38.49
2019-03-10T13:51:36.731Z,39.34
2019-03-10T13:56:40.349Z,38.40
2019-03-10T14:01:43.897Z,38.71
2019-03-10T14:06:47.470Z,38.19
2019-03-10T14:11:51.012Z,37.83
2019-03-10T14:16:54.962Z,36.73
2019-03-10T14:21:58.508Z,37.34
2019-03-10T14:27:02.071Z,37.20
2019-03-10T14:32:05.606Z,36.73
2019-03-10T14:37:09.153Z,36.73
2019-03-10T14:42:12.727Z,37.04
2019-03-10T14:47:16.293Z,36.01
2019-03-10T14:52:23.025Z,37.61
2019-03-10T14:57:26.560Z,37.77
2019-03-10T15:02:30.123Z,35.90
2019-03-10T15:07:33.683Z,38.08
2019-03-10T15:12:37.218Z,37.99
2019-03-10T15:17:40.760Z,37.06
2019-03-10T15:22:44.321Z,36.89
2019-03-10T15:27:47.904Z,36.92
2019-03-10T15:32:51.946Z,36.51
2019-03-10T15:37:55.517Z,36.40
2019-03-10T15:42:59.059Z,36.46
2019-03-10T15:48:02.637Z,36.34
2019-03-10T15:53:06.253Z,35.31
2019-03-10T15:58:09.839Z,37.33
2019-03-10T16:03:13.372Z,37.66
2019-03-10T16:08:16.965Z,37.69
2019-03-10T16:13:20.494Z,37.51
2019-03-10T16:18:24.108Z,37.55
2019-03-10T16:23:27.652Z,36.86
2019-03-10T16:28:31.237Z,35.50
2019-03-10T16:33:34.750Z,35.13
2019-03-10T16:38:38.304Z,36.43
2019-03-10T16:43:41.833Z,37.10
2019-03-10T16:48:45.655Z,35.20
2019-03-10T16:53:49.183Z,37.27
2019-03-10T16:58:52.718Z,37.71
2019-03-10T17:03:56.397Z,38.14
2019-03-10T17:08:59.938Z,38.44
2019-03-10T17:14:03.884Z,39.04
2019-03-10T17:19:09.536Z,39.37
2019-03-10T17:24:13.139Z,39.53
2019-03-10T17:29:16.995Z,40.12
2019-03-10T17:34:20.665Z,41.10
2019-03-10T17:39:24.516Z,41.00
2019-03-10T17:44:28.037Z,40.32
2019-03-10T17:49:31.570Z,39.81
2019-03-10T17:54:35.179Z,39.09
2019-03-10T17:59:38.690Z,38.77
2019-03-10T18:04:42.346Z,39.10
2019-03-10T18:09:45.867Z,39.42
2019-03-10T18:14:49.401Z,39.54
2019-03-10T18:19:52.961Z,40.01
2019-03-10T18:24:56.540Z,40.26
2019-03-10T18:30:00.175Z,40.82
2019-03-10T18:35:06.757Z,41.29
2019-03-10T18:40:24.489Z,40.82
2019-03-10T18:45:28.025Z,41.12
2019-03-10T18:50:31.618Z,43.29
2019-03-10T18:55:35.161Z,45.08
2019-03-10T19:00:39.083Z,44.36
2019-03-10T19:05:42.753Z,45.37
2019-03-10T19:10:46.315Z,46.09
2019-03-10T19:15:49.847Z,47.08
2019-03-10T19:20:53.882Z,47.30
2019-03-10T19:25:57.411Z,47.11
2019-03-10T19:31:01.105Z,46.65
2019-03-10T19:36:05.150Z,46.27
2019-03-10T19:41:09.010Z,44.63
2019-03-10T19:46:12.580Z,43.17
2019-03-10T19:51:16.155Z,41.71
2019-03-10T19:56:19.689Z,41.99
2019-03-10T20:01:23.239Z,41.89
2019-03-10T20:06:26.799Z,41.89
2019-03-10T20:11:30.359Z,42.29
2019-03-10T20:16:33.946Z,41.93
2019-03-10T20:21:37.719Z,41.76
2019-03-10T20:26:41.285Z,42.14
2019-03-10T20:31:44.853Z,42.96
2019-03-10T20:36:48.404Z,43.05
2019-03-10T20:41:51.973Z,42.55
2019-03-10T20:46:55.633Z,43.19
2019-03-10T20:51:59.214Z,43.94
2019-03-10T20:57:02.734Z,44.58
2019-03-10T21:02:06.300Z,40.57
2019-03-10T21:07:10.333Z,45.20
2019-03-10T21:12:13.991Z,44.40
2019-03-10T21:17:17.553Z,43.21
2019-03-10T21:22:21.239Z,44.30
2019-03-10T21:27:24.794Z,45.49
2019-03-10T21:32:28.338Z,44.81
2019-03-10T21:37:31.905Z,45.49
2019-03-10T21:42:35.511Z,46.07
2019-03-10T21:47:39.037Z,45.83
2019-03-10T21:52:42.647Z,46.00
2019-03-10T21:57:46.330Z,45.29
2019-03-10T22:02:49.904Z,45.80
2019-03-10T22:07:53.457Z,45.16
2019-03-10T22:12:56.973Z,45.58
2019-03-10T22:18:00.518Z,43.33
2019-03-10T22:23:04.830Z,45.03
2019-03-10T22:28:08.399Z,42.95
2019-03-10T22:33:11.918Z,41.14
2019-03-10T22:38:15.548Z,39.47
2019-03-10T22:43:19.179Z,38.02
2019-03-10T22:48:22.702Z,37.09
2019-03-10T22:53:26.272Z,36.95
2019-03-10T22:58:29.825Z,37.09
2019-03-10T23:03:33.357Z,37.27
2019-03-10T23:08:36.897Z,37.27
2019-03-10T23:13:40.564Z,37.05
2019-03-10T23:18:44.110Z,37.27
2019-03-10T23:23:47.666Z,37.39
2019-03-10T23:28:51.272Z,37.80
2019-03-10T23:33:54.796Z,38.28
2019-03-10T23:38:58.393Z,38.47
2019-03-10T23:44:01.936Z,39.04
2019-03-10T23:49:05.497Z,39.84
2019-03-10T23:54:09.050Z,40.15
2019-03-10T23:59:12.607Z,40.24
